sensor_id;sensor_type;location;lat;lon;timestamp;P1;durP1;ratioP1;P2;durP2;ratioP2
21245;SDS011;10781;50.928;4.440;2022-10-16T00:01:30;30.58;;;29.23;;
21245;SDS011;10781;50.928;4.440;2022-10-16T00:03:57;30.73;;;29.30;;
21245;SDS011;10781;50.928;4.440;2022-10-16T00:06:25;30.10;;;28.70;;
21245;SDS011;10781;50.928;4.440;2022-10-16T00:08:52;29.88;;;28.58;;
21245;SDS011;10781;50.928;4.440;2022-10-16T00:11:22;29.73;;;28.42;;
21245;SDS011;10781;50.928;4.440;2022-10-16T00:13:50;30.55;;;29.08;;
21245;SDS011;10781;50.928;4.440;2022-10-16T00:16:19;29.45;;;28.00;;
21245;SDS011;10781;50.928;4.440;2022-10-16T00:18:45;28.15;;;26.65;;
21245;SDS011;10781;50.928;4.440;2022-10-16T00:21:16;28.58;;;27.27;;
21245;SDS011;10781;50.928;4.440;2022-10-16T00:23:43;29.30;;;28.00;;
21245;SDS011;10781;50.928;4.440;2022-10-16T00:26:10;29.00;;;27.45;;
21245;SDS011;10781;50.928;4.440;2022-10-16T00:28:44;28.77;;;27.40;;
21245;SDS011;10781;50.928;4.440;2022-10-16T00:31:14;27.40;;;26.17;;
21245;SDS011;10781;50.928;4.440;2022-10-16T00:33:41;30.42;;;29.05;;
21245;SDS011;10781;50.928;4.440;2022-10-16T00:36:07;28.63;;;27.33;;
21245;SDS011;10781;50.928;4.440;2022-10-16T00:38:37;29.63;;;28.23;;
21245;SDS011;10781;50.928;4.440;2022-10-16T00:41:03;28.77;;;27.38;;
21245;SDS011;10781;50.928;4.440;2022-10-16T00:46:24;27.83;;;26.50;;
21245;SDS011;10781;50.928;4.440;2022-10-16T00:51:37;28.48;;;27.13;;
21245;SDS011;10781;50.928;4.440;2022-10-16T00:54:12;28.92;;;27.55;;
21245;SDS011;10781;50.928;4.440;2022-10-16T00:56:44;30.00;;;28.60;;
21245;SDS011;10781;50.928;4.440;2022-10-16T00:59:22;29.98;;;28.58;;
21245;SDS011;10781;50.928;4.440;2022-10-16T01:01:50;27.80;;;26.42;;
21245;SDS011;10781;50.928;4.440;2022-10-16T01:04:16;28.08;;;26.77;;
21245;SDS011;10781;50.928;4.440;2022-10-16T01:06:46;30.05;;;28.60;;
21245;SDS011;10781;50.928;4.440;2022-10-16T01:11:50;29.52;;;28.20;;
21245;SDS011;10781;50.928;4.440;2022-10-16T01:14:45;27.38;;;26.13;;
21245;SDS011;10781;50.928;4.440;2022-10-16T01:17:18;27.85;;;26.55;;
21245;SDS011;10781;50.928;4.440;2022-10-16T01:22:24;27.80;;;26.55;;
21245;SDS011;10781;50.928;4.440;2022-10-16T01:24:57;28.00;;;26.73;;
21245;SDS011;10781;50.928;4.440;2022-10-16T01:27:29;27.67;;;26.17;;
21245;SDS011;10781;50.928;4.440;2022-10-16T01:30:10;28.33;;;27.02;;
21245;SDS011;10781;50.928;4.440;2022-10-16T01:32:42;28.10;;;26.88;;
21245;SDS011;10781;50.928;4.440;2022-10-16T01:35:19;29.55;;;28.00;;
21245;SDS011;10781;50.928;4.440;2022-10-16T01:37:48;28.30;;;26.80;;
21245;SDS011;10781;50.928;4.440;2022-10-16T01:40:28;28.63;;;27.23;;
21245;SDS011;10781;50.928;4.440;2022-10-16T01:43:05;29.40;;;28.00;;
21245;SDS011;10781;50.928;4.440;2022-10-16T01:45:36;27.33;;;25.83;;
21245;SDS011;10781;50.928;4.440;2022-10-16T01:48:03;30.90;;;29.52;;
21245;SDS011;10781;50.928;4.440;2022-10-16T01:50:33;29.90;;;28.20;;
21245;SDS011;10781;50.928;4.440;2022-10-16T01:53:03;29.08;;;27.42;;
21245;SDS011;10781;50.928;4.440;2022-10-16T01:55:32;29.33;;;27.92;;
21245;SDS011;10781;50.928;4.440;2022-10-16T01:58:01;29.63;;;28.13;;
21245;SDS011;10781;50.928;4.440;2022-10-16T02:00:32;28.90;;;27.60;;
21245;SDS011;10781;50.928;4.440;2022-10-16T02:02:57;30.40;;;28.92;;
21245;SDS011;10781;50.928;4.440;2022-10-16T02:08:02;28.33;;;27.02;;
21245;SDS011;10781;50.928;4.440;2022-10-16T02:10:28;30.83;;;29.23;;
21245;SDS011;10781;50.928;4.440;2022-10-16T02:13:05;28.67;;;27.33;;
21245;SDS011;10781;50.928;4.440;2022-10-16T02:15:37;28.83;;;27.42;;
21245;SDS011;10781;50.928;4.440;2022-10-16T02:18:03;28.83;;;27.48;;
21245;SDS011;10781;50.928;4.440;2022-10-16T02:20:32;28.65;;;27.38;;
21245;SDS011;10781;50.928;4.440;2022-10-16T02:23:01;29.42;;;28.08;;
21245;SDS011;10781;50.928;4.440;2022-10-16T02:25:34;28.88;;;27.42;;
21245;SDS011;10781;50.928;4.440;2022-10-16T02:28:03;30.08;;;28.38;;
21245;SDS011;10781;50.928;4.440;2022-10-16T02:31:07;27.95;;;26.55;;
21245;SDS011;10781;50.928;4.440;2022-10-16T02:33:28;28.00;;;26.38;;
21245;SDS011;10781;50.928;4.440;2022-10-16T02:35:55;28.75;;;27.33;;
21245;SDS011;10781;50.928;4.440;2022-10-16T02:38:22;29.88;;;28.08;;
21245;SDS011;10781;50.928;4.440;2022-10-16T02:40:50;29.27;;;27.83;;
21245;SDS011;10781;50.928;4.440;2022-10-16T02:43:16;39.22;;;36.78;;
21245;SDS011;10781;50.928;4.440;2022-10-16T02:45:42;51.92;;;47.75;;
21245;SDS011;10781;50.928;4.440;2022-10-16T02:48:08;31.95;;;30.33;;
21245;SDS011;10781;50.928;4.440;2022-10-16T02:50:33;29.88;;;28.38;;
21245;SDS011;10781;50.928;4.440;2022-10-16T02:52:59;28.83;;;27.42;;
21245;SDS011;10781;50.928;4.440;2022-10-16T02:55:25;29.88;;;28.48;;
21245;SDS011;10781;50.928;4.440;2022-10-16T02:57:52;29.17;;;27.77;;
21245;SDS011;10781;50.928;4.440;2022-10-16T03:00:19;29.17;;;27.73;;
21245;SDS011;10781;50.928;4.440;2022-10-16T03:02:44;30.15;;;28.45;;
21245;SDS011;10781;50.928;4.440;2022-10-16T03:05:11;29.83;;;28.40;;
21245;SDS011;10781;50.928;4.440;2022-10-16T03:07:37;29.98;;;28.40;;
21245;SDS011;10781;50.928;4.440;2022-10-16T03:10:03;29.40;;;27.95;;
21245;SDS011;10781;50.928;4.440;2022-10-16T03:12:29;38.55;;;35.95;;
21245;SDS011;10781;50.928;4.440;2022-10-16T03:14:55;30.77;;;29.27;;
21245;SDS011;10781;50.928;4.440;2022-10-16T03:17:22;29.17;;;27.67;;
21245;SDS011;10781;50.928;4.440;2022-10-16T03:19:48;29.27;;;27.77;;
21245;SDS011;10781;50.928;4.440;2022-10-16T03:22:13;29.38;;;27.98;;
21245;SDS011;10781;50.928;4.440;2022-10-16T03:24:39;29.60;;;28.20;;
21245;SDS011;10781;50.928;4.440;2022-10-16T03:27:05;28.98;;;27.67;;
21245;SDS011;10781;50.928;4.440;2022-10-16T03:29:31;29.83;;;28.42;;
21245;SDS011;10781;50.928;4.440;2022-10-16T03:31:57;29.27;;;27.92;;
21245;SDS011;10781;50.928;4.440;2022-10-16T03:34:23;29.55;;;27.92;;
21245;SDS011;10781;50.928;4.440;2022-10-16T03:36:49;29.90;;;28.40;;
21245;SDS011;10781;50.928;4.440;2022-10-16T03:39:15;28.38;;;27.00;;
21245;SDS011;10781;50.928;4.440;2022-10-16T03:41:41;29.50;;;27.90;;
21245;SDS011;10781;50.928;4.440;2022-10-16T03:44:09;29.85;;;28.10;;
21245;SDS011;10781;50.928;4.440;2022-10-16T03:46:35;28.98;;;27.60;;
21245;SDS011;10781;50.928;4.440;2022-10-16T03:49:01;29.80;;;28.38;;
21245;SDS011;10781;50.928;4.440;2022-10-16T03:51:26;28.92;;;27.50;;
21245;SDS011;10781;50.928;4.440;2022-10-16T03:53:52;29.25;;;27.73;;
21245;SDS011;10781;50.928;4.440;2022-10-16T03:56:18;28.83;;;27.38;;
21245;SDS011;10781;50.928;4.440;2022-10-16T03:58:43;30.25;;;28.58;;
21245;SDS011;10781;50.928;4.440;2022-10-16T04:01:09;29.55;;;28.15;;
21245;SDS011;10781;50.928;4.440;2022-10-16T04:03:34;28.58;;;27.15;;
21245;SDS011;10781;50.928;4.440;2022-10-16T04:06:00;29.25;;;27.65;;
21245;SDS011;10781;50.928;4.440;2022-10-16T04:08:26;30.02;;;28.52;;
21245;SDS011;10781;50.928;4.440;2022-10-16T04:10:51;29.13;;;27.73;;
21245;SDS011;10781;50.928;4.440;2022-10-16T04:13:17;29.15;;;27.80;;
21245;SDS011;10781;50.928;4.440;2022-10-16T04:15:45;29.17;;;27.75;;
21245;SDS011;10781;50.928;4.440;2022-10-16T04:18:11;29.30;;;27.83;;
21245;SDS011;10781;50.928;4.440;2022-10-16T04:20:36;28.52;;;27.02;;
21245;SDS011;10781;50.928;4.440;2022-10-16T04:23:02;29.92;;;28.50;;
21245;SDS011;10781;50.928;4.440;2022-10-16T04:25:28;29.17;;;27.52;;
21245;SDS011;10781;50.928;4.440;2022-10-16T04:27:55;29.60;;;28.08;;
21245;SDS011;10781;50.928;4.440;2022-10-16T04:30:21;28.15;;;26.75;;
21245;SDS011;10781;50.928;4.440;2022-10-16T04:32:48;29.73;;;28.20;;
21245;SDS011;10781;50.928;4.440;2022-10-16T04:35:15;29.25;;;27.88;;
21245;SDS011;10781;50.928;4.440;2022-10-16T04:37:41;29.25;;;27.75;;
21245;SDS011;10781;50.928;4.440;2022-10-16T04:40:06;29.55;;;28.23;;
21245;SDS011;10781;50.928;4.440;2022-10-16T04:42:32;28.83;;;27.40;;
21245;SDS011;10781;50.928;4.440;2022-10-16T04:44:58;28.48;;;26.98;;
21245;SDS011;10781;50.928;4.440;2022-10-16T04:47:24;27.58;;;26.15;;
21245;SDS011;10781;50.928;4.440;2022-10-16T04:49:49;30.08;;;28.35;;
21245;SDS011;10781;50.928;4.440;2022-10-16T04:52:15;29.58;;;28.15;;
21245;SDS011;10781;50.928;4.440;2022-10-16T04:54:41;28.90;;;27.30;;
21245;SDS011;10781;50.928;4.440;2022-10-16T04:57:06;30.77;;;28.98;;
21245;SDS011;10781;50.928;4.440;2022-10-16T04:59:32;28.02;;;26.55;;
21245;SDS011;10781;50.928;4.440;2022-10-16T05:01:58;28.23;;;26.75;;
21245;SDS011;10781;50.928;4.440;2022-10-16T05:04:23;28.05;;;26.75;;
21245;SDS011;10781;50.928;4.440;2022-10-16T05:06:49;28.73;;;27.23;;
21245;SDS011;10781;50.928;4.440;2022-10-16T05:09:14;29.08;;;27.40;;
21245;SDS011;10781;50.928;4.440;2022-10-16T05:11:40;28.65;;;27.25;;
21245;SDS011;10781;50.928;4.440;2022-10-16T05:14:06;27.67;;;26.17;;
21245;SDS011;10781;50.928;4.440;2022-10-16T05:16:31;28.95;;;27.35;;
21245;SDS011;10781;50.928;4.440;2022-10-16T05:18:57;27.38;;;25.98;;
21245;SDS011;10781;50.928;4.440;2022-10-16T05:21:23;28.13;;;26.42;;
21245;SDS011;10781;50.928;4.440;2022-10-16T05:23:48;27.65;;;26.35;;
21245;SDS011;10781;50.928;4.440;2022-10-16T05:26:14;28.48;;;26.88;;
21245;SDS011;10781;50.928;4.440;2022-10-16T05:28:40;28.58;;;27.17;;
21245;SDS011;10781;50.928;4.440;2022-10-16T05:31:05;27.60;;;26.05;;
21245;SDS011;10781;50.928;4.440;2022-10-16T05:33:32;28.00;;;26.65;;
21245;SDS011;10781;50.928;4.440;2022-10-16T05:36:02;27.70;;;26.20;;
21245;SDS011;10781;50.928;4.440;2022-10-16T05:38:32;28.55;;;27.05;;
21245;SDS011;10781;50.928;4.440;2022-10-16T05:40:58;28.00;;;26.38;;
21245;SDS011;10781;50.928;4.440;2022-10-16T05:43:24;28.05;;;26.58;;
21245;SDS011;10781;50.928;4.440;2022-10-16T05:45:53;28.77;;;27.25;;
21245;SDS011;10781;50.928;4.440;2022-10-16T05:48:23;29.88;;;28.42;;
21245;SDS011;10781;50.928;4.440;2022-10-16T05:50:55;28.33;;;26.63;;
21245;SDS011;10781;50.928;4.440;2022-10-16T05:53:26;28.35;;;26.80;;
21245;SDS011;10781;50.928;4.440;2022-10-16T05:55:53;30.02;;;28.40;;
21245;SDS011;10781;50.928;4.440;2022-10-16T05:58:19;27.83;;;26.23;;
21245;SDS011;10781;50.928;4.440;2022-10-16T06:00:52;28.13;;;26.73;;
21245;SDS011;10781;50.928;4.440;2022-10-16T06:03:18;27.63;;;26.08;;
21245;SDS011;10781;50.928;4.440;2022-10-16T06:05:44;30.33;;;28.73;;
21245;SDS011;10781;50.928;4.440;2022-10-16T06:08:10;30.23;;;28.33;;
21245;SDS011;10781;50.928;4.440;2022-10-16T06:10:35;29.75;;;27.60;;
21245;SDS011;10781;50.928;4.440;2022-10-16T06:13:01;30.05;;;28.58;;
21245;SDS011;10781;50.928;4.440;2022-10-16T06:15:26;30.13;;;28.52;;
21245;SDS011;10781;50.928;4.440;2022-10-16T06:17:52;30.33;;;28.55;;
21245;SDS011;10781;50.928;4.440;2022-10-16T06:20:18;29.65;;;28.25;;
21245;SDS011;10781;50.928;4.440;2022-10-16T06:22:43;31.10;;;29.42;;
21245;SDS011;10781;50.928;4.440;2022-10-16T06:25:09;29.48;;;27.67;;
21245;SDS011;10781;50.928;4.440;2022-10-16T06:27:35;31.42;;;29.65;;
21245;SDS011;10781;50.928;4.440;2022-10-16T06:30:00;29.83;;;28.30;;
21245;SDS011;10781;50.928;4.440;2022-10-16T06:32:27;30.65;;;29.13;;
21245;SDS011;10781;50.928;4.440;2022-10-16T06:34:52;30.60;;;28.73;;
21245;SDS011;10781;50.928;4.440;2022-10-16T06:37:18;29.70;;;28.10;;
21245;SDS011;10781;50.928;4.440;2022-10-16T06:39:44;31.15;;;29.30;;
21245;SDS011;10781;50.928;4.440;2022-10-16T06:42:10;30.33;;;28.75;;
21245;SDS011;10781;50.928;4.440;2022-10-16T06:44:36;29.60;;;28.10;;
21245;SDS011;10781;50.928;4.440;2022-10-16T06:47:01;31.27;;;29.60;;
21245;SDS011;10781;50.928;4.440;2022-10-16T06:49:27;29.38;;;27.77;;
21245;SDS011;10781;50.928;4.440;2022-10-16T06:51:53;29.00;;;27.42;;
21245;SDS011;10781;50.928;4.440;2022-10-16T06:54:19;30.45;;;28.85;;
21245;SDS011;10781;50.928;4.440;2022-10-16T06:56:44;30.02;;;28.42;;
21245;SDS011;10781;50.928;4.440;2022-10-16T06:59:10;29.73;;;28.23;;
21245;SDS011;10781;50.928;4.440;2022-10-16T07:01:35;28.92;;;27.50;;
21245;SDS011;10781;50.928;4.440;2022-10-16T07:04:01;30.52;;;28.88;;
21245;SDS011;10781;50.928;4.440;2022-10-16T07:06:30;30.65;;;28.80;;
21245;SDS011;10781;50.928;4.440;2022-10-16T07:08:57;28.55;;;26.98;;
21245;SDS011;10781;50.928;4.440;2022-10-16T07:11:23;29.33;;;27.67;;
21245;SDS011;10781;50.928;4.440;2022-10-16T07:13:49;28.58;;;26.90;;
21245;SDS011;10781;50.928;4.440;2022-10-16T07:16:17;30.60;;;29.02;;
21245;SDS011;10781;50.928;4.440;2022-10-16T07:18:44;29.80;;;28.02;;
21245;SDS011;10781;50.928;4.440;2022-10-16T07:23:38;29.27;;;27.85;;
21245;SDS011;10781;50.928;4.440;2022-10-16T07:26:06;29.80;;;28.10;;
21245;SDS011;10781;50.928;4.440;2022-10-16T07:28:32;28.27;;;26.80;;
21245;SDS011;10781;50.928;4.440;2022-10-16T07:31:06;28.05;;;26.55;;
21245;SDS011;10781;50.928;4.440;2022-10-16T07:33:33;28.27;;;26.58;;
21245;SDS011;10781;50.928;4.440;2022-10-16T07:36:00;28.58;;;27.17;;
21245;SDS011;10781;50.928;4.440;2022-10-16T07:38:28;29.98;;;28.33;;
21245;SDS011;10781;50.928;4.440;2022-10-16T07:40:57;29.17;;;27.48;;
21245;SDS011;10781;50.928;4.440;2022-10-16T07:43:24;30.00;;;28.48;;
21245;SDS011;10781;50.928;4.440;2022-10-16T07:45:50;27.85;;;26.42;;
21245;SDS011;10781;50.928;4.440;2022-10-16T07:48:17;28.83;;;27.27;;
21245;SDS011;10781;50.928;4.440;2022-10-16T07:50:43;28.70;;;27.10;;
21245;SDS011;10781;50.928;4.440;2022-10-16T07:53:10;29.65;;;27.90;;
21245;SDS011;10781;50.928;4.440;2022-10-16T07:55:36;28.70;;;27.20;;
21245;SDS011;10781;50.928;4.440;2022-10-16T07:58:04;28.77;;;27.35;;
21245;SDS011;10781;50.928;4.440;2022-10-16T08:00:33;29.45;;;27.95;;
21245;SDS011;10781;50.928;4.440;2022-10-16T08:02:59;30.48;;;28.98;;
21245;SDS011;10781;50.928;4.440;2022-10-16T08:05:27;29.17;;;27.58;;
21245;SDS011;10781;50.928;4.440;2022-10-16T08:07:54;29.65;;;28.10;;
21245;SDS011;10781;50.928;4.440;2022-10-16T08:10:21;30.88;;;29.23;;
21245;SDS011;10781;50.928;4.440;2022-10-16T08:12:48;29.05;;;27.35;;
21245;SDS011;10781;50.928;4.440;2022-10-16T08:15:14;30.10;;;28.30;;
21245;SDS011;10781;50.928;4.440;2022-10-16T08:17:39;28.60;;;27.23;;
21245;SDS011;10781;50.928;4.440;2022-10-16T08:20:05;28.92;;;27.55;;
21245;SDS011;10781;50.928;4.440;2022-10-16T08:22:31;28.77;;;27.17;;
21245;SDS011;10781;50.928;4.440;2022-10-16T08:24:57;29.85;;;28.35;;
21245;SDS011;10781;50.928;4.440;2022-10-16T08:27:23;31.33;;;29.58;;
21245;SDS011;10781;50.928;4.440;2022-10-16T08:29:48;31.40;;;29.50;;
21245;SDS011;10781;50.928;4.440;2022-10-16T08:32:14;28.55;;;27.10;;
21245;SDS011;10781;50.928;4.440;2022-10-16T08:34:40;28.67;;;27.20;;
21245;SDS011;10781;50.928;4.440;2022-10-16T08:37:06;30.90;;;29.20;;
21245;SDS011;10781;50.928;4.440;2022-10-16T08:39:33;29.73;;;28.02;;
21245;SDS011;10781;50.928;4.440;2022-10-16T08:45:19;28.00;;;26.55;;
21245;SDS011;10781;50.928;4.440;2022-10-16T08:50:41;29.35;;;27.83;;
21245;SDS011;10781;50.928;4.440;2022-10-16T08:53:09;34.38;;;32.38;;
21245;SDS011;10781;50.928;4.440;2022-10-16T08:55:52;30.27;;;28.48;;
21245;SDS011;10781;50.928;4.440;2022-10-16T08:58:20;29.40;;;27.90;;
21245;SDS011;10781;50.928;4.440;2022-10-16T09:00:48;29.63;;;27.92;;
21245;SDS011;10781;50.928;4.440;2022-10-16T09:06:22;30.23;;;28.55;;
21245;SDS011;10781;50.928;4.440;2022-10-16T09:11:39;30.13;;;28.10;;
21245;SDS011;10781;50.928;4.440;2022-10-16T09:19:46;30.30;;;28.70;;
21245;SDS011;10781;50.928;4.440;2022-10-16T09:22:18;29.23;;;27.80;;
21245;SDS011;10781;50.928;4.440;2022-10-16T09:24:50;31.33;;;29.65;;
21245;SDS011;10781;50.928;4.440;2022-10-16T09:27:19;31.42;;;29.73;;
21245;SDS011;10781;50.928;4.440;2022-10-16T09:29:45;31.27;;;29.77;;
21245;SDS011;10781;50.928;4.440;2022-10-16T09:32:12;31.50;;;29.88;;
21245;SDS011;10781;50.928;4.440;2022-10-16T09:34:42;31.35;;;29.75;;
21245;SDS011;10781;50.928;4.440;2022-10-16T09:37:13;29.25;;;27.80;;
21245;SDS011;10781;50.928;4.440;2022-10-16T09:39:46;30.95;;;29.20;;
21245;SDS011;10781;50.928;4.440;2022-10-16T09:42:22;28.55;;;27.05;;
21245;SDS011;10781;50.928;4.440;2022-10-16T09:44:55;29.20;;;27.85;;
21245;SDS011;10781;50.928;4.440;2022-10-16T09:47:25;29.60;;;28.17;;
21245;SDS011;10781;50.928;4.440;2022-10-16T09:49:53;29.48;;;27.98;;
21245;SDS011;10781;50.928;4.440;2022-10-16T09:52:27;27.00;;;25.65;;
21245;SDS011;10781;50.928;4.440;2022-10-16T09:54:57;28.40;;;26.90;;
21245;SDS011;10781;50.928;4.440;2022-10-16T09:57:25;28.73;;;27.13;;
21245;SDS011;10781;50.928;4.440;2022-10-16T09:59:52;27.88;;;26.38;;
21245;SDS011;10781;50.928;4.440;2022-10-16T10:02:23;28.83;;;27.17;;
21245;SDS011;10781;50.928;4.440;2022-10-16T10:04:52;27.55;;;26.05;;
21245;SDS011;10781;50.928;4.440;2022-10-16T10:07:26;27.55;;;25.85;;
21245;SDS011;10781;50.928;4.440;2022-10-16T10:09:58;45.08;;;26.92;;
21245;SDS011;10781;50.928;4.440;2022-10-16T10:12:24;27.98;;;25.30;;
21245;SDS011;10781;50.928;4.440;2022-10-16T10:14:53;27.42;;;24.95;;
21245;SDS011;10781;50.928;4.440;2022-10-16T10:17:25;24.30;;;22.90;;
21245;SDS011;10781;50.928;4.440;2022-10-16T10:19:53;24.30;;;23.10;;
21245;SDS011;10781;50.928;4.440;2022-10-16T10:30:13;24.30;;;23.02;;
21245;SDS011;10781;50.928;4.440;2022-10-16T10:38:06;22.48;;;21.05;;
21245;SDS011;10781;50.928;4.440;2022-10-16T10:40:52;25.08;;;23.67;;
21245;SDS011;10781;50.928;4.440;2022-10-16T10:46:32;23.70;;;22.40;;
21245;SDS011;10781;50.928;4.440;2022-10-16T10:49:13;23.80;;;22.60;;
21245;SDS011;10781;50.928;4.440;2022-10-16T11:06:34;24.02;;;22.52;;
21245;SDS011;10781;50.928;4.440;2022-10-16T11:09:14;26.95;;;24.67;;
21245;SDS011;10781;50.928;4.440;2022-10-16T11:14:36;25.02;;;23.67;;
21245;SDS011;10781;50.928;4.440;2022-10-16T11:17:08;104.28;;;27.90;;
21245;SDS011;10781;50.928;4.440;2022-10-16T11:19:46;24.65;;;22.98;;
21245;SDS011;10781;50.928;4.440;2022-10-16T11:25:16;25.38;;;23.98;;
21245;SDS011;10781;50.928;4.440;2022-10-16T11:28:17;25.23;;;23.92;;
21245;SDS011;10781;50.928;4.440;2022-10-16T11:36:11;26.38;;;24.95;;
21245;SDS011;10781;50.928;4.440;2022-10-16T11:41:22;25.23;;;24.08;;
21245;SDS011;10781;50.928;4.440;2022-10-16T11:47:08;25.65;;;24.25;;
21245;SDS011;10781;50.928;4.440;2022-10-16T11:49:59;26.88;;;25.38;;
21245;SDS011;10781;50.928;4.440;2022-10-16T11:55:16;26.55;;;25.15;;
21245;SDS011;10781;50.928;4.440;2022-10-16T11:57:53;26.27;;;24.88;;
21245;SDS011;10781;50.928;4.440;2022-10-16T12:00:25;27.55;;;26.15;;
21245;SDS011;10781;50.928;4.440;2022-10-16T12:03:33;27.10;;;25.83;;
21245;SDS011;10781;50.928;4.440;2022-10-16T12:09:01;30.17;;;28.58;;
21245;SDS011;10781;50.928;4.440;2022-10-16T12:14:04;29.65;;;28.25;;
21245;SDS011;10781;50.928;4.440;2022-10-16T12:16:55;30.10;;;28.30;;
21245;SDS011;10781;50.928;4.440;2022-10-16T12:19:25;30.05;;;28.63;;
21245;SDS011;10781;50.928;4.440;2022-10-16T12:21:53;28.73;;;27.05;;
21245;SDS011;10781;50.928;4.440;2022-10-16T12:24:21;26.30;;;24.90;;
21245;SDS011;10781;50.928;4.440;2022-10-16T12:26:58;28.20;;;26.80;;
21245;SDS011;10781;50.928;4.440;2022-10-16T12:31:58;29.05;;;27.55;;
21245;SDS011;10781;50.928;4.440;2022-10-16T12:37:41;28.75;;;27.35;;
21245;SDS011;10781;50.928;4.440;2022-10-16T12:40:14;27.98;;;26.52;;
21245;SDS011;10781;50.928;4.440;2022-10-16T12:42:53;27.17;;;25.83;;
21245;SDS011;10781;50.928;4.440;2022-10-16T12:47:51;27.77;;;26.35;;
21245;SDS011;10781;50.928;4.440;2022-10-16T12:52:59;29.13;;;27.50;;
21245;SDS011;10781;50.928;4.440;2022-10-16T12:55:25;30.35;;;28.73;;
21245;SDS011;10781;50.928;4.440;2022-10-16T13:00:56;29.02;;;27.42;;
21245;SDS011;10781;50.928;4.440;2022-10-16T13:03:26;29.25;;;27.65;;
21245;SDS011;10781;50.928;4.440;2022-10-16T13:09:52;27.90;;;26.55;;
21245;SDS011;10781;50.928;4.440;2022-10-16T13:12:49;28.45;;;27.15;;
21245;SDS011;10781;50.928;4.440;2022-10-16T13:15:28;28.25;;;26.85;;
21245;SDS011;10781;50.928;4.440;2022-10-16T13:18:27;28.45;;;26.98;;
21245;SDS011;10781;50.928;4.440;2022-10-16T13:21:10;29.17;;;27.67;;
21245;SDS011;10781;50.928;4.440;2022-10-16T13:28:38;30.25;;;28.80;;
21245;SDS011;10781;50.928;4.440;2022-10-16T13:31:04;30.95;;;29.38;;
21245;SDS011;10781;50.928;4.440;2022-10-16T13:33:36;30.13;;;28.58;;
21245;SDS011;10781;50.928;4.440;2022-10-16T13:36:04;31.58;;;30.08;;
21245;SDS011;10781;50.928;4.440;2022-10-16T13:38:32;30.73;;;29.23;;
21245;SDS011;10781;50.928;4.440;2022-10-16T13:41:00;29.08;;;27.67;;
21245;SDS011;10781;50.928;4.440;2022-10-16T13:43:32;29.02;;;27.52;;
21245;SDS011;10781;50.928;4.440;2022-10-16T13:46:03;28.08;;;26.70;;
21245;SDS011;10781;50.928;4.440;2022-10-16T13:48:37;29.90;;;28.30;;
21245;SDS011;10781;50.928;4.440;2022-10-16T13:51:04;29.15;;;27.58;;
21245;SDS011;10781;50.928;4.440;2022-10-16T13:53:38;29.50;;;27.80;;
21245;SDS011;10781;50.928;4.440;2022-10-16T13:56:06;29.10;;;27.55;;
21245;SDS011;10781;50.928;4.440;2022-10-16T13:58:35;28.83;;;27.42;;
21245;SDS011;10781;50.928;4.440;2022-10-16T14:01:02;29.27;;;27.65;;
21245;SDS011;10781;50.928;4.440;2022-10-16T14:03:39;28.23;;;26.92;;
21245;SDS011;10781;50.928;4.440;2022-10-16T14:06:06;29.10;;;27.70;;
21245;SDS011;10781;50.928;4.440;2022-10-16T14:08:41;27.77;;;26.30;;
21245;SDS011;10781;50.928;4.440;2022-10-16T14:11:09;28.00;;;26.55;;
21245;SDS011;10781;50.928;4.440;2022-10-16T14:16:17;29.30;;;27.75;;
21245;SDS011;10781;50.928;4.440;2022-10-16T14:19:33;28.38;;;26.98;;
21245;SDS011;10781;50.928;4.440;2022-10-16T14:21:40;28.02;;;26.50;;
21245;SDS011;10781;50.928;4.440;2022-10-16T14:24:13;29.25;;;27.65;;
21245;SDS011;10781;50.928;4.440;2022-10-16T14:26:49;29.40;;;27.90;;
21245;SDS011;10781;50.928;4.440;2022-10-16T14:29:17;29.05;;;27.60;;
21245;SDS011;10781;50.928;4.440;2022-10-16T14:31:54;30.88;;;29.27;;
21245;SDS011;10781;50.928;4.440;2022-10-16T14:34:25;29.10;;;27.60;;
21245;SDS011;10781;50.928;4.440;2022-10-16T14:37:06;29.48;;;28.08;;
21245;SDS011;10781;50.928;4.440;2022-10-16T14:39:40;29.95;;;28.45;;
21245;SDS011;10781;50.928;4.440;2022-10-16T14:42:19;31.38;;;29.67;;
21245;SDS011;10781;50.928;4.440;2022-10-16T14:44:48;30.98;;;29.17;;
21245;SDS011;10781;50.928;4.440;2022-10-16T14:47:18;30.48;;;28.92;;
21245;SDS011;10781;50.928;4.440;2022-10-16T14:49:50;30.08;;;28.58;;
21245;SDS011;10781;50.928;4.440;2022-10-16T14:52:16;29.50;;;28.05;;
21245;SDS011;10781;50.928;4.440;2022-10-16T14:54:42;30.77;;;28.88;;
21245;SDS011;10781;50.928;4.440;2022-10-16T14:57:18;30.17;;;28.58;;
21245;SDS011;10781;50.928;4.440;2022-10-16T14:59:45;31.13;;;29.52;;
21245;SDS011;10781;50.928;4.440;2022-10-16T15:05:41;29.63;;;27.95;;
21245;SDS011;10781;50.928;4.440;2022-10-16T15:07:52;29.80;;;28.10;;
21245;SDS011;10781;50.928;4.440;2022-10-16T15:10:19;30.25;;;28.77;;
21245;SDS011;10781;50.928;4.440;2022-10-16T15:12:50;31.05;;;29.33;;
21245;SDS011;10781;50.928;4.440;2022-10-16T15:15:21;31.38;;;29.92;;
21245;SDS011;10781;50.928;4.440;2022-10-16T15:17:52;32.17;;;30.48;;
21245;SDS011;10781;50.928;4.440;2022-10-16T15:20:22;31.13;;;29.58;;
21245;SDS011;10781;50.928;4.440;2022-10-16T15:22:52;33.88;;;32.10;;
21245;SDS011;10781;50.928;4.440;2022-10-16T15:25:29;33.40;;;31.50;;
21245;SDS011;10781;50.928;4.440;2022-10-16T15:27:58;31.60;;;30.05;;
21245;SDS011;10781;50.928;4.440;2022-10-16T15:30:25;31.95;;;30.40;;
21245;SDS011;10781;50.928;4.440;2022-10-16T15:32:50;32.15;;;30.45;;
21245;SDS011;10781;50.928;4.440;2022-10-16T15:35:16;31.67;;;29.98;;
21245;SDS011;10781;50.928;4.440;2022-10-16T15:37:42;32.75;;;30.95;;
21245;SDS011;10781;50.928;4.440;2022-10-16T15:40:08;32.08;;;30.35;;
21245;SDS011;10781;50.928;4.440;2022-10-16T15:42:35;32.08;;;30.38;;
21245;SDS011;10781;50.928;4.440;2022-10-16T15:45:01;31.65;;;30.05;;
21245;SDS011;10781;50.928;4.440;2022-10-16T15:47:28;32.17;;;30.58;;
21245;SDS011;10781;50.928;4.440;2022-10-16T15:49:53;31.70;;;30.10;;
21245;SDS011;10781;50.928;4.440;2022-10-16T15:52:19;33.50;;;31.70;;
21245;SDS011;10781;50.928;4.440;2022-10-16T15:54:44;31.95;;;30.30;;
21245;SDS011;10781;50.928;4.440;2022-10-16T15:57:10;33.72;;;31.92;;
21245;SDS011;10781;50.928;4.440;2022-10-16T15:59:36;34.50;;;32.80;;
21245;SDS011;10781;50.928;4.440;2022-10-16T16:02:01;34.72;;;32.72;;
21245;SDS011;10781;50.928;4.440;2022-10-16T16:04:29;34.72;;;32.92;;
21245;SDS011;10781;50.928;4.440;2022-10-16T16:06:55;35.50;;;33.33;;
21245;SDS011;10781;50.928;4.440;2022-10-16T16:09:21;34.13;;;32.38;;
21245;SDS011;10781;50.928;4.440;2022-10-16T16:11:47;33.90;;;32.15;;
21245;SDS011;10781;50.928;4.440;2022-10-16T16:14:14;34.05;;;32.10;;
21245;SDS011;10781;50.928;4.440;2022-10-16T16:16:40;34.67;;;32.58;;
21245;SDS011;10781;50.928;4.440;2022-10-16T16:19:06;34.88;;;32.88;;
21245;SDS011;10781;50.928;4.440;2022-10-16T16:21:33;33.47;;;31.65;;
21245;SDS011;10781;50.928;4.440;2022-10-16T16:23:59;32.92;;;31.08;;
21245;SDS011;10781;50.928;4.440;2022-10-16T16:26:25;34.25;;;32.35;;
21245;SDS011;10781;50.928;4.440;2022-10-16T16:28:54;33.25;;;31.25;;
21245;SDS011;10781;50.928;4.440;2022-10-16T16:31:23;33.22;;;31.50;;